Time;durP1;ratioP1;P1;durP2;ratioP2;P2;SDS_P1;SDS_P2;PMS_P1;PMS_P2;Temp;Humidity;BMP_temperature;BMP_pressure;BME280_temperature;BME280_humidity;BME280_pressure;Samples;Min_cycle;Max_cycle;Signal;HPM_P1;HPM_P2
2023/05/02 00:02:25;;;;;;;0.80;0.80;;;;;;;10.07;88.15;97386.94;5052618;28;20075;-72
2023/05/02 00:04:52;;;;;;;0.63;0.63;;;;;;;10.03;88.47;97384.88;5044248;28;20192;-72
2023/05/02 00:07:20;;;;;;;0.70;0.70;;;;;;;10.02;88.45;97391.22;5045908;28;20110;-71
2023/05/02 00:09:47;;;;;;;0.52;0.52;;;;;;;10.03;87.99;97391.03;5047017;28;20492;-72
2023/05/02 00:12:15;;;;;;;0.60;0.60;;;;;;;9.98;88.21;97384.63;5043316;28;20048;-72
2023/05/02 00:14:42;;;;;;;0.57;0.57;;;;;;;9.93;88.17;97398.56;5051376;28;20377;-71
2023/05/02 00:17:17;;;;;;;1.48;1.48;;;;;;;9.93;87.97;97386.06;5042719;28;20048;-72
2023/05/02 00:19:46;;;;;;;0.63;0.63;;;;;;;9.84;87.92;97387.25;5043575;28;20041;-72
2023/05/02 00:22:13;;;;;;;0.55;0.55;;;;;;;9.81;88.20;97381.47;5054695;28;20067;-72
2023/05/02 00:24:41;;;;;;;0.70;0.70;;;;;;;9.77;87.97;97374.88;5054214;28;20577;-72
2023/05/02 00:27:08;;;;;;;0.65;0.65;;;;;;;9.77;87.92;97382.88;5054629;28;20515;-72
2023/05/02 00:29:36;;;;;;;0.65;0.65;;;;;;;9.65;87.72;97384.44;5050287;28;20037;-72
2023/05/02 00:32:04;;;;;;;0.65;0.65;;;;;;;9.71;87.89;97378.31;5056860;28;20044;-72
2023/05/02 00:34:31;;;;;;;0.65;0.65;;;;;;;9.75;87.32;97383.09;5059723;28;20073;-72
2023/05/02 00:37:00;;;;;;;0.50;0.50;;;;;;;9.63;87.81;97373.97;5042251;28;20052;-72
2023/05/02 00:39:28;;;;;;;0.57;0.57;;;;;;;9.59;88.28;97378.03;5054654;28;20041;-72
2023/05/02 00:41:58;;;;;;;0.47;0.47;;;;;;;9.43;88.68;97379.16;5041039;28;20045;-72
2023/05/02 00:44:26;;;;;;;0.77;0.77;;;;;;;9.56;88.20;97389.88;5047248;28;20045;-72
2023/05/02 00:46:54;;;;;;;0.70;0.70;;;;;;;9.53;88.22;97379.63;5044010;28;20108;-72
2023/05/02 00:49:22;;;;;;;0.20;0.20;;;;;;;9.46;88.38;97381.41;5053836;28;20423;-72
2023/05/02 00:51:50;;;;;;;0.90;0.90;;;;;;;9.47;88.36;97385.72;5048455;28;20516;-72
2023/05/02 00:54:19;;;;;;;0.10;0.10;;;;;;;9.46;87.97;97383.25;5057254;28;20462;-72
2023/05/02 00:56:47;;;;;;;0.77;0.77;;;;;;;9.46;87.83;97388.56;5056900;28;20054;-72
2023/05/02 00:59:14;;;;;;;0.55;0.55;;;;;;;9.41;87.49;97383.84;5057426;28;20071;-72
2023/05/02 01:01:53;;;;;;;0.10;0.10;;;;;;;9.39;87.21;97382.38;5040558;28;20439;-72
2023/05/02 01:04:30;;;;;;;0.50;0.50;;;;;;;9.30;87.48;97375.53;5055708;28;20136;-72
2023/05/02 01:07:06;;;;;;;0.63;0.63;;;;;;;9.29;87.42;97388.03;5046621;28;20109;-72
2023/05/02 01:09:41;;;;;;;0.63;0.63;;;;;;;9.29;87.22;97382.72;5050892;28;20049;-72
2023/05/02 01:12:16;;;;;;;0.82;0.82;;;;;;;9.18;87.92;97386.72;5056419;28;20087;-72
2023/05/02 01:14:47;;;;;;;0.80;0.80;;;;;;;9.34;87.18;97384.81;5051621;28;20050;-72
2023/05/02 01:17:15;;;;;;;0.70;0.70;;;;;;;9.31;86.84;97385.19;5047777;28;20158;-72
2023/05/02 01:19:45;;;;;;;0.50;0.50;;;;;;;9.23;87.06;97385.31;5051767;28;20091;-72
2023/05/02 01:22:14;;;;;;;0.70;0.70;;;;;;;9.26;87.33;97388.41;5053477;28;20052;-72
2023/05/02 01:24:49;;;;;;;0.50;0.50;;;;;;;9.24;87.06;97389.63;5051686;28;20048;-72
2023/05/02 01:27:22;;;;;;;0.60;0.60;;;;;;;9.23;86.79;97391.47;5050599;28;20449;-71
2023/05/02 01:29:52;;;;;;;0.70;0.70;;;;;;;9.22;86.80;97387.16;5054272;28;20046;-71
2023/05/02 01:32:22;;;;;;;0.60;0.60;;;;;;;9.25;87.01;97393.91;5046656;28;20045;-71
2023/05/02 01:34:50;;;;;;;0.80;0.80;;;;;;;9.30;86.49;97395.00;5056225;28;20038;-72
2023/05/02 01:37:17;;;;;;;0.50;0.50;;;;;;;9.31;86.03;97401.16;5039765;28;20045;-72
2023/05/02 01:39:46;;;;;;;0.60;0.60;;;;;;;9.33;86.18;97402.63;5040688;28;20034;-72
2023/05/02 01:42:15;;;;;;;0.40;0.40;;;;;;;9.35;85.81;97403.22;5053803;28;20056;-72
2023/05/02 01:44:43;;;;;;;0.70;0.70;;;;;;;9.28;86.63;97413.00;5051025;28;20053;-72
2023/05/02 01:47:12;;;;;;;0.43;0.43;;;;;;;9.28;86.03;97406.88;5045890;28;20059;-71
2023/05/02 01:49:41;;;;;;;0.57;0.57;;;;;;;9.29;86.21;97409.34;5051553;28;20518;-72
2023/05/02 01:52:11;;;;;;;0.77;0.77;;;;;;;9.35;85.98;97407.72;5059827;28;20048;-72
2023/05/02 01:54:40;;;;;;;0.52;0.52;;;;;;;9.33;85.81;97405.28;5054669;28;20045;-72
2023/05/02 01:57:09;;;;;;;0.75;0.75;;;;;;;9.47;85.65;97403.53;5044333;28;20052;-73
2023/05/02 01:59:37;;;;;;;0.77;0.77;;;;;;;9.40;85.48;97410.66;5054124;28;20037;-72
2023/05/02 02:02:05;;;;;;;0.20;0.20;;;;;;;9.37;85.43;97411.03;5054248;28;20449;-72
2023/05/02 02:04:34;;;;;;;0.20;0.20;;;;;;;9.28;86.15;97409.53;5060154;28;20507;-71
2023/05/02 02:07:06;;;;;;;0.60;0.60;;;;;;;9.33;85.89;97415.94;5048337;28;20041;-71
2023/05/02 02:09:34;;;;;;;0.93;0.93;;;;;;;9.26;85.87;97408.88;5052492;28;20110;-71
2023/05/02 02:12:05;;;;;;;0.68;0.68;;;;;;;9.25;86.20;97415.22;5045972;28;20373;-71
2023/05/02 02:14:34;;;;;;;0.57;0.57;;;;;;;9.24;85.66;97422.38;5057129;28;20420;-71
2023/05/02 02:17:05;;;;;;;0.55;0.55;;;;;;;9.24;85.63;97424.25;5048903;28;20450;-71
2023/05/02 02:19:36;;;;;;;0.52;0.52;;;;;;;9.23;85.47;97426.09;5047876;28;20045;-71
2023/05/02 02:22:05;;;;;;;1.90;1.90;;;;;;;9.26;85.01;97433.69;5054980;28;20041;-71
2023/05/02 02:24:33;;;;;;;0.73;0.73;;;;;;;9.24;85.22;97432.25;5050022;28;20052;-71
2023/05/02 02:27:01;;;;;;;1.13;1.13;;;;;;;9.27;85.14;97434.50;5056478;28;20094;-72
2023/05/02 02:29:29;;;;;;;0.55;0.55;;;;;;;9.35;85.34;97440.53;5039800;28;20049;-71
2023/05/02 02:31:56;;;;;;;0.50;0.50;;;;;;;9.40;85.20;97437.31;5050617;28;20496;-72
2023/05/02 02:34:24;;;;;;;0.35;0.35;;;;;;;9.34;85.03;97440.75;5053261;28;20049;-71
2023/05/02 02:36:57;;;;;;;0.63;0.63;;;;;;;9.29;85.74;97441.28;5047365;28;20073;-71
2023/05/02 02:39:40;;;;;;;0.55;0.55;;;;;;;9.45;84.54;97440.19;5053970;28;20459;-71
2023/05/02 02:42:12;;;;;;;0.63;0.63;;;;;;;9.47;85.19;97446.16;5035407;28;20045;-72
2023/05/02 02:44:46;;;;;;;0.95;0.95;;;;;;;9.45;84.41;97454.34;5061985;28;20056;-72
2023/05/02 02:47:21;;;;;;;0.82;0.82;;;;;;;9.31;84.89;97460.56;5045826;28;20094;-72
2023/05/02 02:49:51;;;;;;;0.82;0.82;;;;;;;9.28;84.96;97457.47;5044484;28;20064;-72
2023/05/02 02:52:28;;;;;;;0.75;0.75;;;;;;;9.37;84.86;97458.97;5049655;28;20083;-71
2023/05/02 02:54:59;;;;;;;0.55;0.55;;;;;;;9.38;85.01;97452.63;5064817;28;20055;-72
2023/05/02 02:57:31;;;;;;;0.77;0.77;;;;;;;9.48;84.74;97461.97;5053606;28;20079;-71
2023/05/02 03:00:03;;;;;;;0.70;0.70;;;;;;;9.51;84.03;97463.44;5050562;28;20092;-72
2023/05/02 03:02:32;;;;;;;0.70;0.70;;;;;;;9.50;84.40;97459.94;5058786;28;20052;-72
2023/05/02 03:05:01;;;;;;;0.63;0.63;;;;;;;9.53;85.14;97466.72;5063194;28;20051;-71
2023/05/02 03:07:30;;;;;;;0.70;0.70;;;;;;;9.44;83.81;97470.53;5056995;28;20143;-71
2023/05/02 03:10:02;;;;;;;0.50;0.50;;;;;;;9.34;83.69;97478.84;5053695;28;20090;-72
2023/05/02 03:12:32;;;;;;;0.77;0.77;;;;;;;9.31;84.33;97476.56;5053579;28;20052;-72
2023/05/02 03:15:08;;;;;;;0.63;0.63;;;;;;;9.36;84.20;97489.28;5047886;28;20084;-71
2023/05/02 03:17:35;;;;;;;0.63;0.63;;;;;;;9.22;84.01;97493.69;5051527;28;20103;-72
2023/05/02 03:20:04;;;;;;;0.82;0.82;;;;;;;9.32;84.14;97494.19;5055279;28;20032;-71
2023/05/02 03:22:33;;;;;;;0.68;0.68;;;;;;;9.41;83.88;97497.56;5052884;28;20129;-72
2023/05/02 03:25:01;;;;;;;1.23;1.23;;;;;;;9.31;83.92;97497.03;5060858;28;20135;-71
2023/05/02 03:27:30;;;;;;;0.65;0.65;;;;;;;9.22;84.44;97491.00;5054422;28;20281;-72
2023/05/02 03:30:00;;;;;;;0.70;0.70;;;;;;;9.19;84.71;97500.19;5044299;28;20135;-72
2023/05/02 03:32:29;;;;;;;0.47;0.47;;;;;;;9.17;84.90;97499.56;5056236;28;20046;-72
2023/05/02 03:34:57;;;;;;;0.57;0.57;;;;;;;9.15;85.04;97501.56;5040508;28;20495;-72
2023/05/02 03:37:30;;;;;;;0.88;0.88;;;;;;;9.18;84.76;97506.53;5049068;28;20045;-72
2023/05/02 03:40:00;;;;;;;0.68;0.68;;;;;;;9.21;84.58;97505.34;5064956;28;20411;-72
2023/05/02 03:42:29;;;;;;;0.60;0.60;;;;;;;9.18;84.91;97513.69;5044204;28;20072;-71
2023/05/02 03:44:57;;;;;;;0.60;0.60;;;;;;;9.24;84.57;97518.25;5048892;28;20122;-71
2023/05/02 03:47:27;;;;;;;0.90;0.90;;;;;;;9.24;84.48;97509.47;5041578;28;20095;-71
2023/05/02 03:49:56;;;;;;;0.20;0.20;;;;;;;9.37;84.23;97517.56;5062002;28;20257;-72
2023/05/02 03:52:24;;;;;;;0.90;0.90;;;;;;;9.35;84.09;97517.75;5045260;28;20495;-71
2023/05/02 03:54:53;;;;;;;0.90;0.90;;;;;;;9.38;84.88;97524.56;5043598;28;20055;-72
2023/05/02 03:57:22;;;;;;;1.25;1.25;;;;;;;9.36;84.73;97531.91;5053552;28;20045;-71
2023/05/02 03:59:50;;;;;;;0.57;0.57;;;;;;;9.41;83.90;97534.84;5053582;28;20069;-72
2023/05/02 04:02:25;;;;;;;0.68;0.68;;;;;;;9.33;84.04;97538.47;5048020;28;20044;-71
2023/05/02 04:04:53;;;;;;;0.50;0.50;;;;;;;9.28;84.14;97543.50;5048933;28;20040;-71
2023/05/02 04:07:24;;;;;;;0.65;0.65;;;;;;;9.37;84.27;97539.72;5051250;28;20123;-71
2023/05/02 04:09:59;;;;;;;0.63;0.63;;;;;;;9.39;83.96;97537.69;5047104;28;20040;-71
2023/05/02 04:12:29;;;;;;;0.65;0.65;;;;;;;9.39;83.68;97542.19;5044902;28;20096;-71
2023/05/02 04:14:57;;;;;;;0.60;0.60;;;;;;;9.46;83.66;97545.75;5048526;28;20045;-71
2023/05/02 04:17:28;;;;;;;0.80;0.80;;;;;;;9.34;83.76;97548.09;5044361;28;20426;-71
2023/05/02 04:19:56;;;;;;;0.52;0.52;;;;;;;9.38;83.92;97551.19;5045228;28;20041;-71
2023/05/02 04:22:26;;;;;;;0.63;0.63;;;;;;;9.40;83.36;97554.50;5059097;28;20033;-71
2023/05/02 04:24:58;;;;;;;;;;;;;;;9.44;83.23;97548.63;5042699;28;20074;-71
2023/05/02 04:27:28;;;;;;;0.55;0.55;;;;;;;9.40;83.20;97562.50;5058988;28;20019;-71
2023/05/02 04:29:57;;;;;;;0.70;0.70;;;;;;;9.25;84.03;97567.84;5040014;28;20075;-72
2023/05/02 04:32:25;;;;;;;0.60;0.60;;;;;;;9.32;83.91;97573.25;5048954;28;20045;-71
2023/05/02 04:34:54;;;;;;;0.60;0.60;;;;;;;9.25;84.32;97569.69;5058162;28;20044;-71
2023/05/02 04:37:23;;;;;;;1.40;1.40;;;;;;;9.28;84.13;97566.66;5045204;28;20045;-71
2023/05/02 04:39:51;;;;;;;0.60;0.60;;;;;;;9.35;84.20;97564.88;5045343;28;20083;-71
2023/05/02 04:42:22;;;;;;;0.80;0.80;;;;;;;9.39;84.11;97577.66;5039654;28;20562;-71
2023/05/02 04:45:05;;;;;;;0.63;0.63;;;;;;;9.40;83.81;97573.16;5045014;28;20048;-71
2023/05/02 04:47:33;;;;;;;0.50;0.50;;;;;;;9.53;83.74;97573.31;5049435;28;20045;-71
2023/05/02 04:50:00;;;;;;;0.60;0.60;;;;;;;9.51;83.80;97580.66;5059409;28;20049;-72
2023/05/02 04:52:29;;;;;;;0.70;0.70;;;;;;;9.44;84.65;97582.44;5050383;28;20049;-72
2023/05/02 04:54:57;;;;;;;0.73;0.73;;;;;;;9.49;84.44;97586.16;5068343;28;20044;-72
2023/05/02 04:57:25;;;;;;;0.60;0.60;;;;;;;9.66;83.66;97593.91;5050708;28;20051;-72
2023/05/02 04:59:56;;;;;;;0.77;0.77;;;;;;;9.63;83.56;97600.47;5046285;28;20517;-72
2023/05/02 05:02:25;;;;;;;0.90;0.90;;;;;;;9.55;84.00;97605.91;5046407;28;20052;-73
2023/05/02 05:04:54;;;;;;;0.70;0.70;;;;;;;9.54;84.14;97594.44;5048781;28;20776;-72
2023/05/02 05:07:22;;;;;;;0.60;0.60;;;;;;;9.45;84.57;97605.34;5043818;28;20048;-72
2023/05/02 05:09:51;;;;;;;0.20;0.20;;;;;;;9.50;84.50;97614.47;5048143;28;20529;-74
2023/05/02 05:12:22;;;;;;;0.65;0.65;;;;;;;9.55;83.94;97617.38;5045437;28;20370;-72
2023/05/02 05:14:50;;;;;;;0.82;0.82;;;;;;;9.55;84.04;97621.91;5042189;28;20053;-72
2023/05/02 05:17:19;;;;;;;0.70;0.70;;;;;;;9.52;84.31;97623.09;5050005;28;20531;-72
2023/05/02 05:19:48;;;;;;;1.08;1.08;;;;;;;9.57;84.20;97620.69;5037867;28;20516;-72
2023/05/02 05:22:16;;;;;;;0.65;0.65;;;;;;;9.60;84.48;97622.16;5039875;28;20049;-72
2023/05/02 05:24:51;;;;;;;0.70;0.70;;;;;;;9.57;85.01;97625.19;5043318;28;20588;-72
2023/05/02 05:27:20;;;;;;;0.65;0.65;;;;;;;9.61;83.98;97629.13;5048671;28;20048;-72
2023/05/02 05:29:48;;;;;;;0.15;0.15;;;;;;;9.66;84.23;97644.53;5054134;28;20403;-72
2023/05/02 05:32:17;;;;;;;0.60;0.60;;;;;;;9.71;84.38;97634.16;5063328;28;20056;-72
2023/05/02 05:34:45;;;;;;;0.63;0.63;;;;;;;9.71;84.94;97645.66;5056280;28;20037;-73
2023/05/02 05:37:14;;;;;;;0.57;0.57;;;;;;;9.70;85.02;97641.31;5056860;28;20040;-72
2023/05/02 05:39:42;;;;;;;0.50;0.50;;;;;;;9.64;84.79;97639.44;5064393;28;20045;-72
2023/05/02 05:42:11;;;;;;;0.57;0.57;;;;;;;9.63;85.16;97643.09;5050556;28;20046;-72
2023/05/02 05:44:39;;;;;;;0.10;0.10;;;;;;;9.64;86.05;97646.59;5054977;28;20404;-72
2023/05/02 05:47:08;;;;;;;0.98;0.98;;;;;;;9.67;84.78;97646.19;5058287;28;20041;-72
2023/05/02 05:49:35;;;;;;;0.75;0.75;;;;;;;9.81;84.62;97659.50;5061890;28;20131;-72
2023/05/02 05:52:07;;;;;;;0.73;0.73;;;;;;;9.77;84.58;97657.38;5065289;28;20506;-72
2023/05/02 05:54:36;;;;;;;0.60;0.60;;;;;;;9.73;85.12;97656.13;5059450;28;20128;-72
2023/05/02 05:57:04;;;;;;;1.17;1.17;;;;;;;9.78;84.34;97667.03;5059164;28;20140;-72
2023/05/02 05:59:34;;;;;;;0.60;0.60;;;;;;;9.78;84.80;97669.69;5042896;28;20124;-72
2023/05/02 06:02:03;;;;;;;0.60;0.60;;;;;;;9.82;84.13;97679.81;5049378;28;20502;-72
2023/05/02 06:04:31;;;;;;;0.65;0.65;;;;;;;9.89;84.30;97670.03;5048948;28;20185;-71
2023/05/02 06:06:59;;;;;;;0.10;0.10;;;;;;;9.93;83.26;97674.00;5058841;28;20419;-72
2023/05/02 06:09:27;;;;;;;0.60;0.60;;;;;;;9.90;84.14;97679.69;5061020;28;20053;-72
2023/05/02 06:11:56;;;;;;;0.77;0.77;;;;;;;9.92;83.24;97672.34;5055535;28;20041;-72
2023/05/02 06:14:24;;;;;;;0.75;0.75;;;;;;;10.01;83.36;97682.88;5051307;28;20048;-72
2023/05/02 06:16:52;;;;;;;0.70;0.70;;;;;;;10.03;83.81;97688.84;5050850;28;20037;-72
2023/05/02 06:19:20;;;;;;;1.08;1.08;;;;;;;10.09;83.83;97685.41;5046988;28;20500;-72
2023/05/02 06:21:47;;;;;;;0.60;0.60;;;;;;;10.04;84.33;97695.84;5060108;28;20106;-72
2023/05/02 06:24:15;;;;;;;0.52;0.52;;;;;;;10.12;84.18;97693.88;5058160;28;20071;-72
2023/05/02 06:26:42;;;;;;;0.68;0.68;;;;;;;10.16;84.11;97699.69;5062893;28;20092;-72
2023/05/02 06:29:11;;;;;;;0.10;0.10;;;;;;;10.24;83.25;97707.59;5056141;28;20399;-72
2023/05/02 06:31:39;;;;;;;0.60;0.60;;;;;;;10.40;82.62;97701.97;5067356;28;20048;-72
2023/05/02 06:34:06;;;;;;;0.73;0.73;;;;;;;10.46;82.11;97717.25;5045802;28;20102;-72
2023/05/02 06:36:34;;;;;;;0.70;0.70;;;;;;;10.49;81.74;97722.19;5054902;28;20050;-72
2023/05/02 06:39:01;;;;;;;0.47;0.47;;;;;;;10.72;80.64;97718.50;5066640;28;20507;-72
2023/05/02 06:41:29;;;;;;;0.75;0.75;;;;;;;10.71;81.41;97722.16;5046328;28;20071;-71
2023/05/02 06:43:57;;;;;;;0.75;0.75;;;;;;;10.85;80.95;97726.63;5047391;28;20102;-72
2023/05/02 06:46:28;;;;;;;1.73;1.73;;;;;;;10.80;80.77;97737.84;5047611;28;20504;-72
2023/05/02 06:48:56;;;;;;;0.65;0.65;;;;;;;10.83;81.03;97745.50;5058036;28;20049;-72
2023/05/02 06:51:23;;;;;;;0.63;0.63;;;;;;;10.69;81.62;97742.91;5048689;28;20069;-72
2023/05/02 06:53:51;;;;;;;0.85;0.85;;;;;;;10.77;81.95;97756.13;5054238;28;20393;-73
2023/05/02 06:56:18;;;;;;;0.52;0.52;;;;;;;10.89;81.40;97752.75;5055809;28;20095;-72
2023/05/02 06:58:46;;;;;;;0.57;0.57;;;;;;;10.99;81.38;97744.41;5051268;28;20073;-72
2023/05/02 07:01:13;;;;;;;0.63;0.63;;;;;;;11.09;80.92;97760.09;5058250;28;20041;-72
2023/05/02 07:03:42;;;;;;;0.50;0.50;;;;;;;11.07;81.54;97762.13;5045844;28;20129;-72
2023/05/02 07:06:10;;;;;;;0.50;0.50;;;;;;;11.17;81.28;97759.94;5061200;28;20037;-72
2023/05/02 07:08:37;;;;;;;0.60;0.60;;;;;;;11.12;81.63;97768.53;5054275;28;20049;-72
2023/05/02 07:11:05;;;;;;;0.70;0.70;;;;;;;11.30;80.62;97771.56;5064888;28;20074;-72
2023/05/02 07:13:32;;;;;;;0.73;0.73;;;;;;;11.31;80.39;97770.53;5063869;28;20052;-72
2023/05/02 07:16:00;;;;;;;0.60;0.60;;;;;;;11.38;79.19;97779.44;5064420;28;20070;-72
2023/05/02 07:18:28;;;;;;;0.60;0.60;;;;;;;11.43;79.32;97778.81;5057346;28;20052;-72
2023/05/02 07:20:57;;;;;;;0.80;0.80;;;;;;;11.51;80.40;97786.72;5055419;28;20569;-72
2023/05/02 07:23:24;;;;;;;0.40;0.40;;;;;;;11.52;79.68;97787.53;5064192;28;20044;-72
2023/05/02 07:25:52;;;;;;;0.70;0.70;;;;;;;11.55;79.02;97785.28;5057639;28;20048;-72
2023/05/02 07:28:20;;;;;;;0.10;0.10;;;;;;;11.62;79.24;97783.50;5060978;28;20493;-72
2023/05/02 07:30:47;;;;;;;0.77;0.77;;;;;;;11.74;78.95;97792.59;5052216;28;20037;-72
2023/05/02 07:33:15;;;;;;;0.70;0.70;;;;;;;11.72;78.69;97794.66;5058585;28;20495;-72
2023/05/02 07:35:43;;;;;;;0.20;0.20;;;;;;;11.63;78.13;97790.47;5052359;28;20409;-72
2023/05/02 07:38:12;;;;;;;0.70;0.70;;;;;;;11.76;78.36;97795.09;5056287;28;20078;-72
2023/05/02 07:40:39;;;;;;;0.38;0.38;;;;;;;11.90;76.64;97791.50;5056110;28;20041;-72
2023/05/02 07:43:07;;;;;;;0.60;0.60;;;;;;;11.99;77.05;97797.50;5063667;28;20098;-73
2023/05/02 07:45:37;;;;;;;0.80;0.80;;;;;;;11.99;76.46;97805.53;5064407;28;20063;-72
2023/05/02 07:48:05;;;;;;;0.45;0.45;;;;;;;12.09;76.56;97811.34;5061989;28;20060;-72
2023/05/02 07:50:32;;;;;;;0.60;0.60;;;;;;;12.17;76.96;97807.66;5067390;28;20056;-72
2023/05/02 07:53:00;;;;;;;0.80;0.80;;;;;;;12.17;76.13;97802.31;5061417;28;20037;-72
2023/05/02 07:55:32;;;;;;;0.63;0.63;;;;;;;12.22;76.60;97814.09;5060287;28;20053;-73
2023/05/02 07:57:59;;;;;;;0.75;0.75;;;;;;;12.29;77.03;97808.75;5056443;28;20133;-72
2023/05/02 08:00:27;;;;;;;0.60;0.60;;;;;;;12.30;74.97;97808.53;5067055;28;20076;-72
2023/05/02 08:02:54;;;;;;;0.73;0.73;;;;;;;12.28;75.66;97815.94;5053910;28;20115;-72
2023/05/02 08:05:22;;;;;;;0.70;0.70;;;;;;;12.24;74.93;97819.25;5067154;28;20503;-72
2023/05/02 08:07:50;;;;;;;0.80;0.80;;;;;;;12.20;76.43;97826.81;5059234;28;20131;-72
2023/05/02 08:10:18;;;;;;;0.70;0.70;;;;;;;12.16;76.44;97827.41;5056693;22;20087;-69
2023/05/02 08:12:46;;;;;;;0.68;0.68;;;;;;;12.14;76.90;97832.97;5034132;28;20045;-69
2023/05/02 08:15:14;;;;;;;0.55;0.55;;;;;;;12.17;77.71;97842.44;5034595;28;20033;-69
2023/05/02 08:17:41;;;;;;;0.63;0.63;;;;;;;12.21;77.65;97838.34;5034260;28;20080;-69
2023/05/02 08:20:10;;;;;;;0.60;0.60;;;;;;;12.23;78.28;97842.50;5032695;28;20049;-70
2023/05/02 08:22:37;;;;;;;0.50;0.50;;;;;;;12.28;78.23;97841.88;5021676;28;20477;-70
2023/05/02 08:25:06;;;;;;;0.50;0.50;;;;;;;12.21;78.33;97843.72;5028323;28;20049;-70
2023/05/02 08:27:34;;;;;;;0.63;0.63;;;;;;;12.22;78.77;97848.03;5021903;28;20091;-69
2023/05/02 08:30:04;;;;;;;0.60;0.60;;;;;;;12.27;77.45;97846.41;5025346;28;20045;-70
2023/05/02 08:32:32;;;;;;;0.20;0.20;;;;;;;12.25;77.29;97847.66;5020903;28;20480;-70
2023/05/02 08:34:59;;;;;;;0.57;0.57;;;;;;;12.24;77.16;97854.03;5026728;28;20049;-70
2023/05/02 08:37:27;;;;;;;0.60;0.60;;;;;;;12.25;77.49;97853.00;5027109;28;20045;-70
2023/05/02 08:39:54;;;;;;;0.50;0.50;;;;;;;12.28;77.48;97860.63;5021243;28;20041;-70
2023/05/02 08:42:22;;;;;;;0.82;0.82;;;;;;;12.30;76.87;97855.91;5028440;28;20041;-69
2023/05/02 08:44:50;;;;;;;0.63;0.63;;;;;;;12.31;77.48;97860.22;5021706;28;20049;-70
2023/05/02 08:47:20;;;;;;;0.70;0.70;;;;;;;12.31;76.95;97860.22;5022800;28;20093;-70
2023/05/02 08:49:48;;;;;;;0.68;0.68;;;;;;;12.29;76.35;97859.59;5028554;28;20055;-70
2023/05/02 08:52:17;;;;;;;0.45;0.45;;;;;;;12.26;77.09;97868.84;5028835;28;20458;-69
2023/05/02 08:54:46;;;;;;;0.50;0.50;;;;;;;12.31;76.53;97871.75;5028967;28;20042;-69
2023/05/02 08:57:13;;;;;;;0.50;0.50;;;;;;;12.38;76.91;97871.78;5019581;28;20046;-68
2023/05/02 08:59:42;;;;;;;0.70;0.70;;;;;;;12.46;76.38;97877.78;5022379;28;20037;-70
2023/05/02 09:02:21;;;;;;;0.50;0.50;;;;;;;12.47;77.13;97879.44;5027014;28;20072;-70
2023/05/02 09:04:49;;;;;;;0.50;0.50;;;;;;;12.52;78.32;97884.22;5011271;28;20041;-69
2023/05/02 09:07:17;;;;;;;0.57;0.57;;;;;;;12.58;76.97;97888.75;5019438;28;20038;-70
2023/05/02 09:09:45;;;;;;;0.57;0.57;;;;;;;12.55;75.77;97889.16;5020952;28;20386;-70
2023/05/02 09:12:12;;;;;;;0.50;0.50;;;;;;;12.44;75.88;97900.44;5023351;28;20385;-70
2023/05/02 09:14:40;;;;;;;0.57;0.57;;;;;;;12.51;76.31;97898.63;5021901;28;20116;-69
2023/05/02 09:17:07;;;;;;;0.60;0.60;;;;;;;12.53;75.48;97904.59;5019230;28;20095;-70
2023/05/02 09:19:36;;;;;;;0.55;0.55;;;;;;;12.52;75.27;97913.66;5022315;28;20057;-69
2023/05/02 09:22:04;;;;;;;0.68;0.68;;;;;;;12.54;75.76;97903.59;5023573;28;20497;-68
2023/05/02 09:24:31;;;;;;;0.55;0.55;;;;;;;12.59;75.73;97911.00;5030171;28;20041;-70
2023/05/02 09:27:01;;;;;;;0.75;0.75;;;;;;;12.64;74.83;97901.34;5025017;28;20042;-70
2023/05/02 09:29:34;;;;;;;0.77;0.77;;;;;;;12.62;75.21;97903.41;5028354;28;20124;-70
2023/05/02 09:32:02;;;;;;;0.52;0.52;;;;;;;12.66;75.48;97903.84;5024263;28;20103;-69
2023/05/02 09:34:30;;;;;;;0.60;0.60;;;;;;;12.78;75.27;97896.84;5022814;28;20520;-69
2023/05/02 09:37:00;;;;;;;0.80;0.80;;;;;;;12.83;74.43;97905.97;5019381;28;20096;-70
2023/05/02 09:39:28;;;;;;;0.47;0.47;;;;;;;12.91;73.41;97904.13;5025814;28;20049;-70
2023/05/02 09:41:57;;;;;;;0.63;0.63;;;;;;;12.96;72.57;97902.50;5026253;28;20038;-69
2023/05/02 09:44:25;;;;;;;0.60;0.60;;;;;;;12.97;72.13;97901.47;5022885;28;20141;-70
2023/05/02 09:46:55;;;;;;;0.60;0.60;;;;;;;12.93;70.80;97904.75;5014723;28;20045;-69
2023/05/02 09:49:39;;;;;;;0.95;0.95;;;;;;;13.08;71.19;97921.50;5022962;28;20072;-69
2023/05/02 09:52:12;;;;;;;0.63;0.63;;;;;;;13.13;69.63;97913.66;5019064;28;20065;-68
2023/05/02 09:54:40;;;;;;;0.60;0.60;;;;;;;13.10;67.49;97922.94;5022786;28;20072;-70
2023/05/02 09:57:09;;;;;;;0.45;0.45;;;;;;;13.11;67.72;97919.22;5022093;28;20041;-70
2023/05/02 09:59:38;;;;;;;0.75;0.75;;;;;;;13.01;68.14;97924.16;5022739;28;20137;-69
2023/05/02 10:02:09;;;;;;;0.68;0.68;;;;;;;13.07;68.39;97926.03;5023978;28;20048;-69
2023/05/02 10:04:36;;;;;;;0.57;0.57;;;;;;;13.15;68.50;97933.09;5027125;28;20052;-70
2023/05/02 10:07:05;;;;;;;0.45;0.45;;;;;;;13.23;67.64;97927.53;5018769;28;20056;-70
2023/05/02 10:09:35;;;;;;;0.50;0.50;;;;;;;13.18;67.27;97932.69;5018928;28;20467;-69
2023/05/02 10:12:03;;;;;;;0.65;0.65;;;;;;;13.29;67.44;97932.06;5022304;28;20075;-69
2023/05/02 10:14:31;;;;;;;0.80;0.80;;;;;;;13.40;66.83;97934.16;5023001;28;20038;-70
2023/05/02 10:17:01;;;;;;;0.43;0.43;;;;;;;13.44;66.60;97930.03;5025889;28;20095;-70
2023/05/02 10:19:30;;;;;;;0.45;0.45;;;;;;;13.46;66.35;97938.72;5025887;28;20385;-70
2023/05/02 10:21:59;;;;;;;0.90;0.90;;;;;;;13.45;66.23;97937.06;5024858;28;20085;-70
2023/05/02 10:24:26;;;;;;;0.50;0.50;;;;;;;13.50;66.53;97934.56;5033154;28;20049;-69
2023/05/02 10:26:56;;;;;;;0.60;0.60;;;;;;;13.46;65.83;97938.72;5029692;28;20109;-70
2023/05/02 10:29:23;;;;;;;0.70;0.70;;;;;;;13.45;65.96;97941.59;5026961;28;20051;-70
2023/05/02 10:31:51;;;;;;;0.73;0.73;;;;;;;13.48;66.33;97949.25;5026349;28;20103;-71
2023/05/02 10:34:19;;;;;;;0.52;0.52;;;;;;;13.41;65.48;97949.22;5027466;28;20049;-69
2023/05/02 10:36:47;;;;;;;0.60;0.60;;;;;;;13.37;65.85;97952.53;5017313;28;20116;-70
2023/05/02 10:39:15;;;;;;;0.52;0.52;;;;;;;13.34;66.18;97944.88;5025791;28;20041;-69
2023/05/02 10:41:43;;;;;;;0.75;0.75;;;;;;;13.40;66.57;97947.56;5023961;28;20080;-69
2023/05/02 10:44:12;;;;;;;0.57;0.57;;;;;;;13.46;66.97;97945.94;5028672;28;20044;-69
2023/05/02 10:46:40;;;;;;;0.90;0.90;;;;;;;13.31;67.27;97947.94;5027991;28;20049;-70
2023/05/02 10:49:10;;;;;;;0.57;0.57;;;;;;;13.39;65.71;97943.22;5029604;28;20121;-68
2023/05/02 10:51:40;;;;;;;0.60;0.60;;;;;;;13.41;66.47;97951.91;5027142;28;20080;-70
2023/05/02 10:54:21;;;;;;;0.57;0.57;;;;;;;13.41;65.51;97946.53;5025582;28;20128;-70
2023/05/02 10:57:07;;;;;;;0.55;0.55;;;;;;;13.39;65.52;97943.22;5029168;28;20041;-70
2023/05/02 10:59:40;;;;;;;0.68;0.68;;;;;;;13.39;66.29;97947.78;5024162;28;20596;-70
2023/05/02 11:02:41;;;;;;;0.47;0.47;;;;;;;13.37;66.14;97953.34;5022269;28;20046;-69
2023/05/02 11:05:09;;;;;;;0.60;0.60;;;;;;;13.33;66.14;97948.59;5021390;28;20107;-70
2023/05/02 11:07:37;;;;;;;0.60;0.60;;;;;;;13.35;66.81;97946.53;5021140;28;20052;-70
2023/05/02 11:10:26;;;;;;;0.68;0.68;;;;;;;13.28;66.27;97951.88;5028319;28;20108;-70
2023/05/02 11:12:55;;;;;;;0.60;0.60;;;;;;;13.26;66.60;97953.94;5025585;28;20047;-70
2023/05/02 11:15:55;;;;;;;0.65;0.65;;;;;;;13.23;66.94;97954.34;5031476;28;20076;-70
2023/05/02 11:18:23;;;;;;;0.75;0.75;;;;;;;13.14;66.88;97960.91;5023747;28;20073;-71
2023/05/02 11:20:50;;;;;;;0.65;0.65;;;;;;;13.11;66.95;97956.75;5023499;28;20183;-70
2023/05/02 11:23:27;;;;;;;1.02;1.02;;;;;;;13.15;67.46;97963.41;5024001;28;20559;-69
2023/05/02 11:25:55;;;;;;;0.80;0.80;;;;;;;13.17;67.58;97961.34;5029502;28;20045;-70
2023/05/02 11:28:47;;;;;;;0.52;0.52;;;;;;;13.21;67.34;97957.22;5023952;28;20050;-70
2023/05/02 11:32:01;;;;;;;0.60;0.60;;;;;;;13.25;67.31;97956.81;5028485;28;20389;-70
2023/05/02 11:34:40;;;;;;;0.40;0.40;;;;;;;13.28;67.54;97949.22;5032139;28;20064;-69
2023/05/02 11:37:12;;;;;;;0.60;0.60;;;;;;;13.34;68.23;97951.06;5026899;28;20038;-69
2023/05/02 11:39:40;;;;;;;0.43;0.43;;;;;;;13.41;69.17;97948.38;5027451;28;20550;-69
2023/05/02 11:42:08;;;;;;;0.20;0.20;;;;;;;13.40;68.60;97946.72;5026269;28;20401;-69
2023/05/02 11:44:56;;;;;;;0.63;0.63;;;;;;;13.22;69.20;97948.16;5022966;28;20046;-69
2023/05/02 11:47:25;;;;;;;0.45;0.45;;;;;;;13.41;69.69;97951.06;5028631;28;20049;-70
2023/05/02 11:49:55;;;;;;;0.70;0.70;;;;;;;13.49;68.93;97946.38;5027491;28;20084;-70
2023/05/02 11:52:23;;;;;;;0.60;0.60;;;;;;;13.62;69.05;97947.38;5022153;28;20048;-69